sensor_id;sensor_type;location;lat;lon;timestamp;temperature;humidity
15483;DHT22;7843;50.330;7.312;2023-09-18T00:00:15;18.30;99.90
15483;DHT22;7843;50.330;7.312;2023-09-18T00:02:42;18.20;99.90
15483;DHT22;7843;50.330;7.312;2023-09-18T00:05:08;18.20;99.90
15483;DHT22;7843;50.330;7.312;2023-09-18T00:07:35;18.10;99.90
15483;DHT22;7843;50.330;7.312;2023-09-18T00:10:02;18.10;99.90
15483;DHT22;7843;50.330;7.312;2023-09-18T00:12:28;18.10;99.90
15483;DHT22;7843;50.330;7.312;2023-09-18T00:14:55;18.10;99.90
15483;DHT22;7843;50.330;7.312;2023-09-18T00:17:22;18.10;99.90
15483;DHT22;7843;50.330;7.312;2023-09-18T00:19:50;18.00;99.90
15483;DHT22;7843;50.330;7.312;2023-09-18T00:22:18;18.00;99.90
15483;DHT22;7843;50.330;7.312;2023-09-18T00:24:44;18.00;99.90
15483;DHT22;7843;50.330;7.312;2023-09-18T00:27:11;18.00;99.90
15483;DHT22;7843;50.330;7.312;2023-09-18T00:29:38;18.00;99.90
15483;DHT22;7843;50.330;7.312;2023-09-18T00:32:05;18.00;99.90
15483;DHT22;7843;50.330;7.312;2023-09-18T00:34:32;18.00;99.90
15483;DHT22;7843;50.330;7.312;2023-09-18T00:36:59;17.90;99.90
15483;DHT22;7843;50.330;7.312;2023-09-18T00:39:28;17.90;99.90
15483;DHT22;7843;50.330;7.312;2023-09-18T00:41:55;17.90;99.90
15483;DHT22;7843;50.330;7.312;2023-09-18T00:44:24;17.90;99.90
15483;DHT22;7843;50.330;7.312;2023-09-18T00:46:53;17.90;99.90
15483;DHT22;7843;50.330;7.312;2023-09-18T00:49:22;18.00;99.90
15483;DHT22;7843;50.330;7.312;2023-09-18T00:51:50;18.00;99.90
15483;DHT22;7843;50.330;7.312;2023-09-18T00:54:18;18.00;99.90
15483;DHT22;7843;50.330;7.312;2023-09-18T00:56:46;17.90;99.90
15483;DHT22;7843;50.330;7.312;2023-09-18T00:59:14;17.90;99.90
15483;DHT22;7843;50.330;7.312;2023-09-18T01:01:42;17.90;99.90
15483;DHT22;7843;50.330;7.312;2023-09-18T01:04:09;17.90;99.90
15483;DHT22;7843;50.330;7.312;2023-09-18T01:06:36;17.90;99.90
15483;DHT22;7843;50.330;7.312;2023-09-18T01:09:03;17.90;99.90
15483;DHT22;7843;50.330;7.312;2023-09-18T01:11:57;17.90;99.90
15483;DHT22;7843;50.330;7.312;2023-09-18T01:14:33;17.90;99.90
15483;DHT22;7843;50.330;7.312;2023-09-18T01:17:04;17.90;99.90
15483;DHT22;7843;50.330;7.312;2023-09-18T01:19:46;17.90;99.90
15483;DHT22;7843;50.330;7.312;2023-09-18T01:22:15;17.90;99.90
15483;DHT22;7843;50.330;7.312;2023-09-18T01:24:44;18.00;99.90
15483;DHT22;7843;50.330;7.312;2023-09-18T01:27:14;18.00;99.90
15483;DHT22;7843;50.330;7.312;2023-09-18T01:29:47;18.00;99.90
15483;DHT22;7843;50.330;7.312;2023-09-18T01:32:14;18.00;99.90
15483;DHT22;7843;50.330;7.312;2023-09-18T01:34:54;18.10;99.90
15483;DHT22;7843;50.330;7.312;2023-09-18T01:37:25;18.20;99.90
15483;DHT22;7843;50.330;7.312;2023-09-18T01:39:52;18.50;99.90
15483;DHT22;7843;50.330;7.312;2023-09-18T01:42:20;18.80;99.90
15483;DHT22;7843;50.330;7.312;2023-09-18T01:44:47;19.00;99.90
15483;DHT22;7843;50.330;7.312;2023-09-18T01:47:16;19.20;99.90
15483;DHT22;7843;50.330;7.312;2023-09-18T01:49:44;19.30;99.90
15483;DHT22;7843;50.330;7.312;2023-09-18T01:52:13;19.20;99.90
15483;DHT22;7843;50.330;7.312;2023-09-18T01:54:39;19.20;99.90
15483;DHT22;7843;50.330;7.312;2023-09-18T01:57:06;19.10;99.90
15483;DHT22;7843;50.330;7.312;2023-09-18T01:59:35;19.00;99.90
15483;DHT22;7843;50.330;7.312;2023-09-18T02:02:02;19.00;99.90
15483;DHT22;7843;50.330;7.312;2023-09-18T02:04:36;18.90;99.90
15483;DHT22;7843;50.330;7.312;2023-09-18T02:07:03;18.90;99.90
15483;DHT22;7843;50.330;7.312;2023-09-18T02:09:30;18.80;99.90
15483;DHT22;7843;50.330;7.312;2023-09-18T02:11:56;18.70;99.90
15483;DHT22;7843;50.330;7.312;2023-09-18T02:14:23;18.70;99.90
15483;DHT22;7843;50.330;7.312;2023-09-18T02:16:50;18.70;99.90
15483;DHT22;7843;50.330;7.312;2023-09-18T02:19:17;18.60;99.90
15483;DHT22;7843;50.330;7.312;2023-09-18T02:21:46;18.60;99.90
15483;DHT22;7843;50.330;7.312;2023-09-18T02:24:13;18.60;99.90
15483;DHT22;7843;50.330;7.312;2023-09-18T02:26:40;18.60;99.90
15483;DHT22;7843;50.330;7.312;2023-09-18T02:29:08;18.50;99.90
15483;DHT22;7843;50.330;7.312;2023-09-18T02:31:40;18.50;99.90
15483;DHT22;7843;50.330;7.312;2023-09-18T02:34:07;18.50;99.90
15483;DHT22;7843;50.330;7.312;2023-09-18T02:36:35;18.50;99.90
15483;DHT22;7843;50.330;7.312;2023-09-18T02:39:02;18.40;99.90
15483;DHT22;7843;50.330;7.312;2023-09-18T02:41:29;18.40;99.90
15483;DHT22;7843;50.330;7.312;2023-09-18T02:43:56;18.40;99.90
15483;DHT22;7843;50.330;7.312;2023-09-18T02:46:22;18.40;99.90
15483;DHT22;7843;50.330;7.312;2023-09-18T02:48:49;18.50;99.90
15483;DHT22;7843;50.330;7.312;2023-09-18T02:51:16;18.40;99.90
15483;DHT22;7843;50.330;7.312;2023-09-18T02:53:43;18.40;99.90
15483;DHT22;7843;50.330;7.312;2023-09-18T02:56:10;18.30;99.90
15483;DHT22;7843;50.330;7.312;2023-09-18T02:58:36;18.30;99.90
15483;DHT22;7843;50.330;7.312;2023-09-18T03:01:03;18.30;99.90
15483;DHT22;7843;50.330;7.312;2023-09-18T03:03:31;18.30;99.90
15483;DHT22;7843;50.330;7.312;2023-09-18T03:06:03;18.40;99.90
15483;DHT22;7843;50.330;7.312;2023-09-18T03:08:30;18.30;99.90
15483;DHT22;7843;50.330;7.312;2023-09-18T03:10:57;18.30;99.90
15483;DHT22;7843;50.330;7.312;2023-09-18T03:13:27;18.30;99.90
15483;DHT22;7843;50.330;7.312;2023-09-18T03:15:54;18.30;99.90
15483;DHT22;7843;50.330;7.312;2023-09-18T03:18:22;18.30;99.90
15483;DHT22;7843;50.330;7.312;2023-09-18T03:20:49;18.30;99.90
15483;DHT22;7843;50.330;7.312;2023-09-18T03:23:16;18.30;99.90
15483;DHT22;7843;50.330;7.312;2023-09-18T03:25:43;18.20;99.90
15483;DHT22;7843;50.330;7.312;2023-09-18T03:28:10;18.20;99.90
15483;DHT22;7843;50.330;7.312;2023-09-18T03:30:36;18.20;99.90
15483;DHT22;7843;50.330;7.312;2023-09-18T03:33:03;18.20;99.90
15483;DHT22;7843;50.330;7.312;2023-09-18T03:35:31;18.20;99.90
15483;DHT22;7843;50.330;7.312;2023-09-18T03:37:58;18.20;99.90
15483;DHT22;7843;50.330;7.312;2023-09-18T03:40:26;18.10;99.90
15483;DHT22;7843;50.330;7.312;2023-09-18T03:42:52;18.10;99.90
15483;DHT22;7843;50.330;7.312;2023-09-18T03:45:19;18.10;99.90
15483;DHT22;7843;50.330;7.312;2023-09-18T03:47:46;18.10;99.90
15483;DHT22;7843;50.330;7.312;2023-09-18T03:50:13;18.20;99.90
15483;DHT22;7843;50.330;7.312;2023-09-18T03:52:40;18.10;99.90
15483;DHT22;7843;50.330;7.312;2023-09-18T03:55:07;18.10;99.90
15483;DHT22;7843;50.330;7.312;2023-09-18T03:57:34;18.10;99.90
15483;DHT22;7843;50.330;7.312;2023-09-18T04:00:02;18.10;99.90
15483;DHT22;7843;50.330;7.312;2023-09-18T04:02:29;18.10;99.90
15483;DHT22;7843;50.330;7.312;2023-09-18T04:04:56;18.10;99.90
15483;DHT22;7843;50.330;7.312;2023-09-18T04:07:23;18.10;99.90
15483;DHT22;7843;50.330;7.312;2023-09-18T04:09:49;18.10;99.90
15483;DHT22;7843;50.330;7.312;2023-09-18T04:12:16;18.20;99.90
15483;DHT22;7843;50.330;7.312;2023-09-18T04:14:43;18.10;99.90
15483;DHT22;7843;50.330;7.312;2023-09-18T04:17:10;18.10;99.90
15483;DHT22;7843;50.330;7.312;2023-09-18T04:19:36;18.10;99.90
15483;DHT22;7843;50.330;7.312;2023-09-18T04:22:03;18.10;99.90
15483;DHT22;7843;50.330;7.312;2023-09-18T04:24:30;18.10;99.90
15483;DHT22;7843;50.330;7.312;2023-09-18T04:26:58;18.10;99.90
15483;DHT22;7843;50.330;7.312;2023-09-18T04:29:24;18.10;99.90
15483;DHT22;7843;50.330;7.312;2023-09-18T04:31:51;18.10;99.90
15483;DHT22;7843;50.330;7.312;2023-09-18T04:34:21;18.10;99.90
15483;DHT22;7843;50.330;7.312;2023-09-18T04:36:48;18.10;99.90
15483;DHT22;7843;50.330;7.312;2023-09-18T04:39:14;18.10;99.90
15483;DHT22;7843;50.330;7.312;2023-09-18T04:41:41;18.10;99.90
15483;DHT22;7843;50.330;7.312;2023-09-18T04:44:08;18.10;99.90
15483;DHT22;7843;50.330;7.312;2023-09-18T04:46:36;18.10;99.90
15483;DHT22;7843;50.330;7.312;2023-09-18T04:49:02;18.10;99.90
15483;DHT22;7843;50.330;7.312;2023-09-18T04:51:31;18.10;99.90
15483;DHT22;7843;50.330;7.312;2023-09-18T04:53:59;18.10;99.90
15483;DHT22;7843;50.330;7.312;2023-09-18T04:56:26;18.10;99.90
15483;DHT22;7843;50.330;7.312;2023-09-18T04:58:53;18.00;99.90
15483;DHT22;7843;50.330;7.312;2023-09-18T05:01:20;18.00;99.90
15483;DHT22;7843;50.330;7.312;2023-09-18T05:03:46;18.00;99.90
15483;DHT22;7843;50.330;7.312;2023-09-18T05:06:15;18.10;99.90
15483;DHT22;7843;50.330;7.312;2023-09-18T05:08:44;18.00;99.90
15483;DHT22;7843;50.330;7.312;2023-09-18T05:11:10;18.00;99.90
15483;DHT22;7843;50.330;7.312;2023-09-18T05:13:39;18.00;99.90
15483;DHT22;7843;50.330;7.312;2023-09-18T05:16:05;18.10;99.90
15483;DHT22;7843;50.330;7.312;2023-09-18T05:18:32;18.10;99.90
15483;DHT22;7843;50.330;7.312;2023-09-18T05:20:59;18.10;99.90
15483;DHT22;7843;50.330;7.312;2023-09-18T05:23:27;18.10;99.90
15483;DHT22;7843;50.330;7.312;2023-09-18T05:25:54;18.10;99.90
15483;DHT22;7843;50.330;7.312;2023-09-18T05:28:21;18.10;99.90
15483;DHT22;7843;50.330;7.312;2023-09-18T05:30:47;18.10;99.90
15483;DHT22;7843;50.330;7.312;2023-09-18T05:33:14;18.10;99.90
15483;DHT22;7843;50.330;7.312;2023-09-18T05:35:43;18.10;99.90
15483;DHT22;7843;50.330;7.312;2023-09-18T05:38:13;18.20;99.90
15483;DHT22;7843;50.330;7.312;2023-09-18T05:40:41;18.10;99.90
15483;DHT22;7843;50.330;7.312;2023-09-18T05:43:07;18.20;99.90
15483;DHT22;7843;50.330;7.312;2023-09-18T05:45:34;18.20;99.90
15483;DHT22;7843;50.330;7.312;2023-09-18T05:48:01;18.20;99.90
15483;DHT22;7843;50.330;7.312;2023-09-18T05:50:31;18.20;99.90
15483;DHT22;7843;50.330;7.312;2023-09-18T05:52:58;18.20;99.90
15483;DHT22;7843;50.330;7.312;2023-09-18T05:55:33;18.20;99.90
15483;DHT22;7843;50.330;7.312;2023-09-18T05:58:00;18.20;99.90
15483;DHT22;7843;50.330;7.312;2023-09-18T06:00:29;18.20;99.90
15483;DHT22;7843;50.330;7.312;2023-09-18T06:02:57;18.20;99.90
15483;DHT22;7843;50.330;7.312;2023-09-18T06:05:25;18.30;99.90
15483;DHT22;7843;50.330;7.312;2023-09-18T06:07:52;18.30;99.90
15483;DHT22;7843;50.330;7.312;2023-09-18T06:10:19;18.30;99.90
15483;DHT22;7843;50.330;7.312;2023-09-18T06:12:46;18.30;99.90
15483;DHT22;7843;50.330;7.312;2023-09-18T06:15:13;18.30;99.90
15483;DHT22;7843;50.330;7.312;2023-09-18T06:17:43;18.20;99.90
15483;DHT22;7843;50.330;7.312;2023-09-18T06:20:11;18.20;99.90
15483;DHT22;7843;50.330;7.312;2023-09-18T06:22:40;18.20;99.90
15483;DHT22;7843;50.330;7.312;2023-09-18T06:25:07;18.20;99.90
15483;DHT22;7843;50.330;7.312;2023-09-18T06:27:37;18.30;99.90
15483;DHT22;7843;50.330;7.312;2023-09-18T06:30:04;18.30;99.90
15483;DHT22;7843;50.330;7.312;2023-09-18T06:32:32;18.30;99.90
15483;DHT22;7843;50.330;7.312;2023-09-18T06:35:00;18.30;99.90
15483;DHT22;7843;50.330;7.312;2023-09-18T06:37:26;18.30;99.90
15483;DHT22;7843;50.330;7.312;2023-09-18T06:39:53;18.40;99.90
15483;DHT22;7843;50.330;7.312;2023-09-18T06:42:20;18.40;99.90
15483;DHT22;7843;50.330;7.312;2023-09-18T06:44:47;18.40;99.90
15483;DHT22;7843;50.330;7.312;2023-09-18T06:47:13;18.40;99.90
15483;DHT22;7843;50.330;7.312;2023-09-18T06:49:41;18.50;99.90
15483;DHT22;7843;50.330;7.312;2023-09-18T06:52:09;18.50;99.90
15483;DHT22;7843;50.330;7.312;2023-09-18T06:54:36;18.60;99.90
15483;DHT22;7843;50.330;7.312;2023-09-18T06:57:03;18.60;99.90
15483;DHT22;7843;50.330;7.312;2023-09-18T06:59:30;18.60;99.90
15483;DHT22;7843;50.330;7.312;2023-09-18T07:01:57;18.60;99.90
15483;DHT22;7843;50.330;7.312;2023-09-18T07:04:24;18.60;99.90
15483;DHT22;7843;50.330;7.312;2023-09-18T07:06:50;18.60;99.90
15483;DHT22;7843;50.330;7.312;2023-09-18T07:09:19;18.60;99.90
15483;DHT22;7843;50.330;7.312;2023-09-18T07:11:49;18.70;99.90
15483;DHT22;7843;50.330;7.312;2023-09-18T07:14:17;18.70;99.90
15483;DHT22;7843;50.330;7.312;2023-09-18T07:16:44;18.70;99.90
15483;DHT22;7843;50.330;7.312;2023-09-18T07:19:10;18.70;99.90
15483;DHT22;7843;50.330;7.312;2023-09-18T07:21:43;18.70;99.90
15483;DHT22;7843;50.330;7.312;2023-09-18T07:24:10;18.80;99.90
15483;DHT22;7843;50.330;7.312;2023-09-18T07:26:36;18.70;99.90
15483;DHT22;7843;50.330;7.312;2023-09-18T07:29:03;18.80;99.90
15483;DHT22;7843;50.330;7.312;2023-09-18T07:31:30;18.80;99.90
15483;DHT22;7843;50.330;7.312;2023-09-18T07:33:57;18.80;99.90
15483;DHT22;7843;50.330;7.312;2023-09-18T07:36:24;18.80;99.90
15483;DHT22;7843;50.330;7.312;2023-09-18T07:38:51;18.90;99.90
15483;DHT22;7843;50.330;7.312;2023-09-18T07:41:17;18.90;99.90
15483;DHT22;7843;50.330;7.312;2023-09-18T07:43:45;18.80;99.90
15483;DHT22;7843;50.330;7.312;2023-09-18T07:46:12;18.90;99.90
15483;DHT22;7843;50.330;7.312;2023-09-18T07:48:39;18.90;99.90
15483;DHT22;7843;50.330;7.312;2023-09-18T07:51:05;18.90;99.90
15483;DHT22;7843;50.330;7.312;2023-09-18T07:53:32;18.90;99.90
15483;DHT22;7843;50.330;7.312;2023-09-18T07:55:59;18.90;99.90
15483;DHT22;7843;50.330;7.312;2023-09-18T07:58:26;18.90;99.90
15483;DHT22;7843;50.330;7.312;2023-09-18T08:00:55;19.00;99.90
15483;DHT22;7843;50.330;7.312;2023-09-18T08:03:24;18.90;99.90
15483;DHT22;7843;50.330;7.312;2023-09-18T08:05:54;19.00;99.90
15483;DHT22;7843;50.330;7.312;2023-09-18T08:08:21;19.00;99.90
15483;DHT22;7843;50.330;7.312;2023-09-18T08:10:50;19.10;99.90
15483;DHT22;7843;50.330;7.312;2023-09-18T08:13:17;19.00;99.90
15483;DHT22;7843;50.330;7.312;2023-09-18T08:15:44;19.10;99.90
15483;DHT22;7843;50.330;7.312;2023-09-18T08:18:11;19.10;99.90
15483;DHT22;7843;50.330;7.312;2023-09-18T08:20:43;19.10;99.90
15483;DHT22;7843;50.330;7.312;2023-09-18T08:23:11;19.10;99.90
15483;DHT22;7843;50.330;7.312;2023-09-18T08:25:38;19.10;99.90
15483;DHT22;7843;50.330;7.312;2023-09-18T08:28:04;19.10;99.90
15483;DHT22;7843;50.330;7.312;2023-09-18T08:30:33;19.10;99.90
15483;DHT22;7843;50.330;7.312;2023-09-18T08:33:00;19.00;99.90
15483;DHT22;7843;50.330;7.312;2023-09-18T08:35:27;19.10;99.90
15483;DHT22;7843;50.330;7.312;2023-09-18T08:37:55;19.00;99.90
15483;DHT22;7843;50.330;7.312;2023-09-18T08:40:23;19.10;99.90
15483;DHT22;7843;50.330;7.312;2023-09-18T08:42:51;19.10;99.90
15483;DHT22;7843;50.330;7.312;2023-09-18T08:45:27;19.10;99.90
15483;DHT22;7843;50.330;7.312;2023-09-18T08:47:58;19.10;99.90
15483;DHT22;7843;50.330;7.312;2023-09-18T08:50:25;19.10;99.90
15483;DHT22;7843;50.330;7.312;2023-09-18T08:52:53;19.20;99.90
15483;DHT22;7843;50.330;7.312;2023-09-18T08:55:20;19.20;99.90
15483;DHT22;7843;50.330;7.312;2023-09-18T08:57:48;19.20;99.90
15483;DHT22;7843;50.330;7.312;2023-09-18T09:00:15;19.20;99.90
15483;DHT22;7843;50.330;7.312;2023-09-18T09:02:45;19.30;99.90
15483;DHT22;7843;50.330;7.312;2023-09-18T09:05:15;19.30;99.90
15483;DHT22;7843;50.330;7.312;2023-09-18T09:07:42;19.30;99.90
15483;DHT22;7843;50.330;7.312;2023-09-18T09:10:09;19.30;99.90
15483;DHT22;7843;50.330;7.312;2023-09-18T09:15:22;19.30;99.90
15483;DHT22;7843;50.330;7.312;2023-09-18T09:17:51;19.30;99.90
15483;DHT22;7843;50.330;7.312;2023-09-18T09:20:18;19.40;99.90
15483;DHT22;7843;50.330;7.312;2023-09-18T09:22:45;19.40;99.90
15483;DHT22;7843;50.330;7.312;2023-09-18T09:25:29;19.40;99.90
15483;DHT22;7843;50.330;7.312;2023-09-18T09:28:05;19.40;99.90
15483;DHT22;7843;50.330;7.312;2023-09-18T09:30:33;19.40;99.90
15483;DHT22;7843;50.330;7.312;2023-09-18T09:33:00;19.50;99.90
15483;DHT22;7843;50.330;7.312;2023-09-18T09:35:31;19.50;99.90
15483;DHT22;7843;50.330;7.312;2023-09-18T09:38:03;19.50;99.90
15483;DHT22;7843;50.330;7.312;2023-09-18T09:40:34;19.40;99.90
15483;DHT22;7843;50.330;7.312;2023-09-18T09:43:02;19.50;99.90
15483;DHT22;7843;50.330;7.312;2023-09-18T09:45:31;19.60;99.90
15483;DHT22;7843;50.330;7.312;2023-09-18T09:48:05;19.70;99.90
15483;DHT22;7843;50.330;7.312;2023-09-18T09:50:35;19.80;99.90
15483;DHT22;7843;50.330;7.312;2023-09-18T09:53:12;19.80;99.90
15483;DHT22;7843;50.330;7.312;2023-09-18T09:55:40;19.80;99.90
15483;DHT22;7843;50.330;7.312;2023-09-18T09:58:08;19.90;99.90
15483;DHT22;7843;50.330;7.312;2023-09-18T10:00:45;19.90;99.90
15483;DHT22;7843;50.330;7.312;2023-09-18T10:03:14;19.90;99.90
15483;DHT22;7843;50.330;7.312;2023-09-18T10:05:43;19.90;99.90
15483;DHT22;7843;50.330;7.312;2023-09-18T10:08:23;19.90;99.90
15483;DHT22;7843;50.330;7.312;2023-09-18T10:10:54;19.90;99.90
15483;DHT22;7843;50.330;7.312;2023-09-18T10:13:32;19.80;99.90
15483;DHT22;7843;50.330;7.312;2023-09-18T10:16:01;19.80;99.90
15483;DHT22;7843;50.330;7.312;2023-09-18T10:18:54;19.90;99.90
15483;DHT22;7843;50.330;7.312;2023-09-18T10:26:57;20.20;99.90
15483;DHT22;7843;50.330;7.312;2023-09-18T10:29:25;20.30;99.90
15483;DHT22;7843;50.330;7.312;2023-09-18T10:31:53;20.50;99.90
15483;DHT22;7843;50.330;7.312;2023-09-18T10:34:22;20.70;99.90
15483;DHT22;7843;50.330;7.312;2023-09-18T10:36:51;20.80;99.90
15483;DHT22;7843;50.330;7.312;2023-09-18T10:39:18;20.90;99.90
15483;DHT22;7843;50.330;7.312;2023-09-18T10:42:05;20.80;99.90
15483;DHT22;7843;50.330;7.312;2023-09-18T10:44:33;20.70;99.90
15483;DHT22;7843;50.330;7.312;2023-09-18T10:47:02;20.60;99.90
15483;DHT22;7843;50.330;7.312;2023-09-18T10:49:31;20.60;99.90
15483;DHT22;7843;50.330;7.312;2023-09-18T10:51:59;20.50;99.90
15483;DHT22;7843;50.330;7.312;2023-09-18T10:54:28;20.50;99.90
15483;DHT22;7843;50.330;7.312;2023-09-18T10:56:56;20.40;99.90
15483;DHT22;7843;50.330;7.312;2023-09-18T10:59:24;20.40;99.90
15483;DHT22;7843;50.330;7.312;2023-09-18T11:01:50;20.50;99.90
15483;DHT22;7843;50.330;7.312;2023-09-18T11:04:19;20.60;99.90
15483;DHT22;7843;50.330;7.312;2023-09-18T11:09:26;20.60;99.90
15483;DHT22;7843;50.330;7.312;2023-09-18T11:14:50;20.60;99.90
15483;DHT22;7843;50.330;7.312;2023-09-18T11:17:36;20.50;99.90
15483;DHT22;7843;50.330;7.312;2023-09-18T11:22:48;20.70;99.90
15483;DHT22;7843;50.330;7.312;2023-09-18T11:25:37;20.70;99.90
15483;DHT22;7843;50.330;7.312;2023-09-18T11:28:05;21.00;99.90
15483;DHT22;7843;50.330;7.312;2023-09-18T11:30:37;21.20;99.90
15483;DHT22;7843;50.330;7.312;2023-09-18T11:33:05;21.40;99.90
15483;DHT22;7843;50.330;7.312;2023-09-18T11:35:33;21.60;99.90
15483;DHT22;7843;50.330;7.312;2023-09-18T11:38:08;21.80;98.60
15483;DHT22;7843;50.330;7.312;2023-09-18T11:40:37;22.00;98.90
15483;DHT22;7843;50.330;7.312;2023-09-18T11:43:26;22.30;98.10
15483;DHT22;7843;50.330;7.312;2023-09-18T11:45:57;22.40;97.90
15483;DHT22;7843;50.330;7.312;2023-09-18T11:48:25;22.30;97.40
15483;DHT22;7843;50.330;7.312;2023-09-18T11:50:56;22.30;96.90
15483;DHT22;7843;50.330;7.312;2023-09-18T11:53:24;22.40;97.50
15483;DHT22;7843;50.330;7.312;2023-09-18T11:55:51;22.40;97.70
15483;DHT22;7843;50.330;7.312;2023-09-18T11:58:18;22.60;95.70
15483;DHT22;7843;50.330;7.312;2023-09-18T12:00:50;22.70;93.90
15483;DHT22;7843;50.330;7.312;2023-09-18T12:03:19;22.60;94.00
15483;DHT22;7843;50.330;7.312;2023-09-18T12:05:54;22.40;94.40
15483;DHT22;7843;50.330;7.312;2023-09-18T12:08:22;22.20;95.60
15483;DHT22;7843;50.330;7.312;2023-09-18T12:10:50;22.00;95.90
15483;DHT22;7843;50.330;7.312;2023-09-18T12:13:17;21.90;96.90
15483;DHT22;7843;50.330;7.312;2023-09-18T12:15:44;21.80;96.60
15483;DHT22;7843;50.330;7.312;2023-09-18T12:18:11;21.70;97.50
15483;DHT22;7843;50.330;7.312;2023-09-18T12:20:46;22.30;96.30
15483;DHT22;7843;50.330;7.312;2023-09-18T12:25:40;24.80;89.70
15483;DHT22;7843;50.330;7.312;2023-09-18T12:28:08;25.70;86.90
15483;DHT22;7843;50.330;7.312;2023-09-18T12:30:34;26.30;86.10
15483;DHT22;7843;50.330;7.312;2023-09-18T12:33:01;27.00;85.70
15483;DHT22;7843;50.330;7.312;2023-09-18T12:35:30;27.30;85.90
15483;DHT22;7843;50.330;7.312;2023-09-18T12:37:58;27.50;84.60
15483;DHT22;7843;50.330;7.312;2023-09-18T12:40:27;27.10;83.30
15483;DHT22;7843;50.330;7.312;2023-09-18T12:42:56;26.60;84.60
15483;DHT22;7843;50.330;7.312;2023-09-18T12:45:24;26.60;86.40
15483;DHT22;7843;50.330;7.312;2023-09-18T12:47:53;26.90;86.50
15483;DHT22;7843;50.330;7.312;2023-09-18T12:50:20;27.40;85.40
15483;DHT22;7843;50.330;7.312;2023-09-18T12:52:47;28.00;83.10
15483;DHT22;7843;50.330;7.312;2023-09-18T12:55:27;28.30;82.80
15483;DHT22;7843;50.330;7.312;2023-09-18T12:57:54;28.70;82.90
15483;DHT22;7843;50.330;7.312;2023-09-18T13:00:21;29.20;76.30
15483;DHT22;7843;50.330;7.312;2023-09-18T13:02:53;29.30;75.20
15483;DHT22;7843;50.330;7.312;2023-09-18T13:05:22;29.60;74.60
15483;DHT22;7843;50.330;7.312;2023-09-18T13:07:53;28.80;77.70
15483;DHT22;7843;50.330;7.312;2023-09-18T13:10:20;28.10;77.70
15483;DHT22;7843;50.330;7.312;2023-09-18T13:12:50;27.60;79.90
15483;DHT22;7843;50.330;7.312;2023-09-18T13:15:33;27.50;82.20
15483;DHT22;7843;50.330;7.312;2023-09-18T13:18:08;27.90;81.10
15483;DHT22;7843;50.330;7.312;2023-09-18T13:20:35;28.40;79.00
15483;DHT22;7843;50.330;7.312;2023-09-18T13:23:04;28.90;76.80
15483;DHT22;7843;50.330;7.312;2023-09-18T13:25:36;29.30;75.00
15483;DHT22;7843;50.330;7.312;2023-09-18T13:28:08;29.60;76.00
15483;DHT22;7843;50.330;7.312;2023-09-18T13:30:36;29.60;74.70
15483;DHT22;7843;50.330;7.312;2023-09-18T13:33:11;28.80;77.30
15483;DHT22;7843;50.330;7.312;2023-09-18T13:35:40;28.80;78.40
15483;DHT22;7843;50.330;7.312;2023-09-18T13:38:08;28.70;78.50
15483;DHT22;7843;50.330;7.312;2023-09-18T13:40:41;28.80;76.00
15483;DHT22;7843;50.330;7.312;2023-09-18T13:43:08;29.20;75.00
15483;DHT22;7843;50.330;7.312;2023-09-18T13:45:35;29.60;75.60
15483;DHT22;7843;50.330;7.312;2023-09-18T13:48:03;29.60;74.10
15483;DHT22;7843;50.330;7.312;2023-09-18T13:50:35;29.60;74.30
15483;DHT22;7843;50.330;7.312;2023-09-18T13:53:02;29.40;74.50
15483;DHT22;7843;50.330;7.312;2023-09-18T13:55:31;29.60;73.80
15483;DHT22;7843;50.330;7.312;2023-09-18T13:57:58;30.20;73.00
15483;DHT22;7843;50.330;7.312;2023-09-18T14:00:24;30.40;69.60
15483;DHT22;7843;50.330;7.312;2023-09-18T14:02:53;30.70;69.50
15483;DHT22;7843;50.330;7.312;2023-09-18T14:05:19;31.10;68.80
15483;DHT22;7843;50.330;7.312;2023-09-18T14:07:46;31.30;68.10
15483;DHT22;7843;50.330;7.312;2023-09-18T14:10:14;31.40;67.50
15483;DHT22;7843;50.330;7.312;2023-09-18T14:12:44;31.30;66.70
15483;DHT22;7843;50.330;7.312;2023-09-18T14:15:10;31.10;68.30
15483;DHT22;7843;50.330;7.312;2023-09-18T14:17:38;30.90;68.30
15483;DHT22;7843;50.330;7.312;2023-09-18T14:20:06;30.80;70.60
15483;DHT22;7843;50.330;7.312;2023-09-18T14:22:34;30.50;70.10
15483;DHT22;7843;50.330;7.312;2023-09-18T14:25:01;29.80;70.70
15483;DHT22;7843;50.330;7.312;2023-09-18T14:27:34;30.00;72.00
15483;DHT22;7843;50.330;7.312;2023-09-18T14:30:03;29.80;68.20
15483;DHT22;7843;50.330;7.312;2023-09-18T14:32:33;29.60;71.20
15483;DHT22;7843;50.330;7.312;2023-09-18T14:35:00;29.70;71.80
15483;DHT22;7843;50.330;7.312;2023-09-18T14:37:29;30.00;70.60
15483;DHT22;7843;50.330;7.312;2023-09-18T14:39:55;30.40;69.20
15483;DHT22;7843;50.330;7.312;2023-09-18T14:42:23;30.90;65.90
15483;DHT22;7843;50.330;7.312;2023-09-18T14:44:50;31.10;68.30
15483;DHT22;7843;50.330;7.312;2023-09-18T14:47:16;31.40;66.70
15483;DHT22;7843;50.330;7.312;2023-09-18T14:49:49;31.50;66.60
15483;DHT22;7843;50.330;7.312;2023-09-18T14:52:16;31.60;67.50
15483;DHT22;7843;50.330;7.312;2023-09-18T14:54:45;31.80;66.80
15483;DHT22;7843;50.330;7.312;2023-09-18T14:57:11;31.70;65.40
15483;DHT22;7843;50.330;7.312;2023-09-18T14:59:38;31.70;66.30
15483;DHT22;7843;50.330;7.312;2023-09-18T15:02:07;31.60;67.40
15483;DHT22;7843;50.330;7.312;2023-09-18T15:04:34;31.10;69.50
15483;DHT22;7843;50.330;7.312;2023-09-18T15:07:01;30.70;64.90
15483;DHT22;7843;50.330;7.312;2023-09-18T15:09:28;30.00;66.20
15483;DHT22;7843;50.330;7.312;2023-09-18T15:11:55;29.00;71.00
15483;DHT22;7843;50.330;7.312;2023-09-18T15:14:21;28.30;73.70
15483;DHT22;7843;50.330;7.312;2023-09-18T15:16:48;27.70;72.30
15483;DHT22;7843;50.330;7.312;2023-09-18T15:19:15;27.10;72.80
15483;DHT22;7843;50.330;7.312;2023-09-18T15:21:45;26.90;74.50
15483;DHT22;7843;50.330;7.312;2023-09-18T15:24:12;26.60;76.40
15483;DHT22;7843;50.330;7.312;2023-09-18T15:26:38;26.20;79.30
15483;DHT22;7843;50.330;7.312;2023-09-18T15:29:05;25.80;79.50
15483;DHT22;7843;50.330;7.312;2023-09-18T15:31:34;25.60;79.90
15483;DHT22;7843;50.330;7.312;2023-09-18T15:34:01;25.30;80.80
15483;DHT22;7843;50.330;7.312;2023-09-18T15:36:28;25.00;83.20
15483;DHT22;7843;50.330;7.312;2023-09-18T15:38:55;24.60;84.00
15483;DHT22;7843;50.330;7.312;2023-09-18T15:41:23;24.30;84.40
15483;DHT22;7843;50.330;7.312;2023-09-18T15:43:50;24.10;84.20
15483;DHT22;7843;50.330;7.312;2023-09-18T15:46:16;24.00;84.20
15483;DHT22;7843;50.330;7.312;2023-09-18T15:48:46;23.90;84.00
15483;DHT22;7843;50.330;7.312;2023-09-18T15:51:13;23.90;84.50
15483;DHT22;7843;50.330;7.312;2023-09-18T15:53:39;23.80;86.70
15483;DHT22;7843;50.330;7.312;2023-09-18T15:56:06;23.70;85.70
15483;DHT22;7843;50.330;7.312;2023-09-18T15:58:33;23.60;84.80
15483;DHT22;7843;50.330;7.312;2023-09-18T16:01:02;23.50;88.80
15483;DHT22;7843;50.330;7.312;2023-09-18T16:03:38;23.40;88.50
15483;DHT22;7843;50.330;7.312;2023-09-18T16:06:14;23.30;86.30
15483;DHT22;7843;50.330;7.312;2023-09-18T16:08:44;23.30;86.90
15483;DHT22;7843;50.330;7.312;2023-09-18T16:11:11;23.30;87.00